Time;durP1;ratioP1;P1;durP2;ratioP2;P2;SDS_P1;SDS_P2;PMS_P1;PMS_P2;Temp;Humidity;BMP_temperature;BMP_pressure;BME280_temperature;BME280_humidity;BME280_pressure;Samples;Min_cycle;Max_cycle;Signal;HPM_P1;HPM_P2
2023/08/02 00:03:13;;;;;;;3.50;3.00;;;;;;;25.85;45.05;99720.08;106904;1269;69070;-91
2023/08/02 00:08:45;;;;;;;3.30;3.00;;;;;;;25.85;45.07;99724.71;108663;1259;553259;-92
2023/08/02 00:14:19;;;;;;;4.20;3.10;;;;;;;25.85;45.25;99721.32;108820;1258;555306;-91
2023/08/02 00:20:18;;;;;;;3.80;3.40;;;;;;;25.85;45.22;99719.76;109316;1260;561201;-90
2023/08/02 00:26:04;;;;;;;3.50;3.20;;;;;;;25.84;45.33;99720.56;108036;1259;556795;-92
2023/08/02 00:31:43;;;;;;;3.30;3.00;;;;;;;25.84;45.51;99723.13;107946;1260;556317;-92
2023/08/02 00:40:14;;;;;;;3.60;3.30;;;;;;;25.84;45.58;99722.36;107638;1259;556113;-92
2023/08/02 00:48:37;;;;;;;3.90;3.30;;;;;;;25.82;45.74;99728.48;107450;1259;555943;-90
2023/08/02 00:51:53;;;;;;;3.60;3.20;;;;;;;25.82;45.68;99726.34;107437;1257;553747;-91
2023/08/02 00:57:43;;;;;;;3.60;3.30;;;;;;;25.81;45.85;99730.34;107427;1263;559260;-90
2023/08/02 01:03:41;;;;;;;4.10;3.70;;;;;;;25.80;46.02;99733.06;108161;1257;73819;-91
2023/08/02 01:12:38;;;;;;;4.50;3.60;;;;;;;25.78;46.25;99733.88;108560;1257;560234;-91
2023/08/02 01:24:16;;;;;;;3.60;3.30;;;;;;;25.76;46.33;99730.14;107745;1257;560250;-90
2023/08/02 01:27:28;;;;;;;7.40;3.70;;;;;;;25.75;46.38;99731.02;108246;1257;555717;-90
2023/08/02 01:33:18;;;;;;;4.30;3.70;;;;;;;25.74;46.56;99727.98;109021;1257;555907;-90
2023/08/02 01:42:11;;;;;;;5.40;3.70;;;;;;;25.73;46.70;99725.91;108836;1256;561212;31
2023/08/02 01:48:25;;;;;;;4.00;3.70;;;;;;;25.73;46.85;99726.47;108986;1254;556591;31
2023/08/02 01:54:24;;;;;;;4.00;3.70;;;;;;;25.73;46.95;99729.02;107247;1259;548195;-92
2023/08/02 02:00:07;;;;;;;5.70;3.90;;;;;;;25.72;47.15;99731.23;109037;1258;551864;-91
2023/08/02 02:06:03;;;;;;;6.30;3.80;;;;;;;25.72;46.95;99732.74;108850;1259;556159;-90
2023/08/02 02:12:09;;;;;;;4.90;3.90;;;;;;;25.71;47.26;99725.14;109091;1256;561198;31
2023/08/02 02:17:50;;;;;;;8.20;4.40;;;;;;;25.71;47.40;99718.16;109119;1256;556217;-90
2023/08/02 02:26:40;;;;;;;5.50;3.90;;;;;;;25.70;47.37;99709.99;107385;1260;559967;-90
2023/08/02 02:32:23;;;;;;;5.10;4.00;;;;;;;25.71;47.52;99713.62;107841;1257;82919;-91
2023/08/02 02:37:56;;;;;;;5.30;3.80;;;;;;;25.70;47.72;99715.52;108793;1257;543440;-92
2023/08/02 02:43:33;;;;;;;6.40;4.00;;;;;;;25.68;47.55;99713.54;107332;1260;546932;-92
2023/08/02 02:49:06;;;;;;;10.60;4.80;;;;;;;25.64;47.87;99721.23;108903;1257;69264;-91
2023/08/02 02:54:45;;;;;;;8.20;5.20;;;;;;;25.33;48.02;99714.02;108376;1257;539361;-91
2023/08/02 02:57:50;;;;;;;9.30;5.10;;;;;;;25.15;48.42;99714.86;109319;1260;67047;-91
2023/08/02 03:03:28;;;;;;;8.90;4.80;;;;;;;24.90;49.07;99716.89;108404;1257;559452;-90
2023/08/02 03:09:19;;;;;;;7.50;5.20;;;;;;;24.77;49.49;99724.95;108184;1257;560392;-89
2023/08/02 03:12:24;;;;;;;10.70;5.40;;;;;;;24.73;49.77;99732.91;108296;1260;553680;-92
2023/08/02 03:18:23;;;;;;;;;;;;;;;;;;;;;
2023/08/02 03:26:47;;;;;;;6.90;5.00;;;;;;;24.66;50.40;99712.30;108920;1257;555319;-84
2023/08/02 03:32:34;;;;;;;8.40;5.20;;;;;;;24.67;50.53;99709.43;108796;1257;560673;-91
2023/08/02 03:38:01;;;;;;;12.90;5.50;;;;;;;24.65;50.49;99715.61;109227;1258;66815;-91
2023/08/02 03:49:35;;;;;;;9.00;5.80;;;;;;;24.56;50.68;99728.52;108861;1256;551213;-91
2023/08/02 03:55:26;;;;;;;8.60;5.60;;;;;;;24.47;50.72;99722.57;109039;1257;554014;-93
2023/08/02 04:10:00;;;;;;;8.90;5.60;;;;;;;24.42;50.59;99717.45;108770;1256;555130;-91
2023/08/02 04:13:52;;;;;;;10.60;6.30;;;;;;;24.40;50.61;99723.95;108754;1257;554118;-93
2023/08/02 04:19:40;;;;;;;8.80;5.40;;;;;;;24.35;50.84;99715.63;108641;1257;66953;-90
2023/08/02 04:25:17;;;;;;;9.30;6.40;;;;;;;24.37;50.86;99716.46;108178;1257;549791;-91
2023/08/02 04:33:58;;;;;;;11.90;6.20;;;;;;;24.45;50.92;99715.77;108253;1260;553305;-90
2023/08/02 04:39:36;;;;;;;10.90;6.70;;;;;;;24.50;50.92;99711.39;108785;1259;69030;-91
2023/08/02 04:42:56;;;;;;;8.50;7.10;;;;;;;24.49;50.95;99708.33;108866;1256;533179;-93
2023/08/02 04:49:32;;;;;;;12.80;7.00;;;;;;;24.52;51.15;99708.92;108435;1260;69088;-90
2023/08/02 04:55:12;;;;;;;11.60;6.30;;;;;;;24.57;51.17;99700.08;108386;1258;69149;-90
2023/08/02 05:03:55;;;;;;;9.90;7.40;;;;;;;24.63;51.07;99705.17;108690;1257;556525;-90
2023/08/02 05:09:37;;;;;;;9.80;6.30;;;;;;;24.62;51.05;99701.65;108089;1257;525165;-91
2023/08/02 05:15:15;;;;;;;18.40;15.10;;;;;;;24.68;50.86;99699.13;109245;1257;67580;-92
2023/08/02 05:21:13;;;;;;;13.80;8.00;;;;;;;24.72;50.88;99717.71;108582;1259;516755;-92
2023/08/02 05:27:22;;;;;;;8.20;6.90;;;;;;;24.73;50.72;99729.83;108482;1260;511541;-90
2023/08/02 05:36:31;;;;;;;9.80;6.50;;;;;;;24.70;50.95;99729.83;104859;1259;535424;-93
2023/08/02 05:45:49;;;;;;;14.00;7.60;;;;;;;24.73;51.13;99737.70;108617;1256;554265;-93
2023/08/02 05:48:50;;;;;;;9.80;7.50;;;;;;;24.76;51.20;99736.18;109037;1257;530158;-92
2023/08/02 05:55:01;;;;;;;14.10;7.10;;;;;;;24.79;51.14;99753.45;109035;1256;528036;-92
2023/08/02 06:00:37;;;;;;;;;;;;;;;24.81;51.30;99753.45;108838;1256;558157;-91
2023/08/02 06:06:33;;;;;;;13.10;7.80;;;;;;;24.82;51.23;99746.20;108373;1256;554106;-92
2023/08/02 06:09:37;;;;;;;16.50;7.50;;;;;;;24.84;51.27;99749.50;108561;1260;74304;-90
2023/08/02 06:12:40;;;;;;;19.10;8.00;;;;;;;24.85;51.24;99753.73;108494;1257;69148;-90
2023/08/02 06:27:59;;;;;;;12.30;7.00;;;;;;;24.91;51.25;99729.32;108973;1257;553867;-91
2023/08/02 06:31:04;;;;;;;8.90;6.70;;;;;;;24.93;51.23;99731.60;109209;1257;559027;-91
2023/08/02 06:37:23;;;;;;;24.30;8.40;;;;;;;24.96;51.23;99745.20;109153;1258;514588;-92
2023/08/02 06:43:18;;;;;;;13.50;7.70;;;;;;;24.99;51.11;99758.84;108369;1257;68298;-91
2023/08/02 06:52:12;;;;;;;12.90;7.00;;;;;;;25.03;51.15;99773.54;108361;1263;69111;-91
2023/08/02 07:01:30;;;;;;;10.80;6.60;;;;;;;25.05;51.16;99761.10;108355;1258;69047;-90
2023/08/02 07:07:07;;;;;;;11.70;6.40;;;;;;;25.07;51.08;99766.80;108531;1257;69731;-90
2023/08/02 07:15:31;;;;;;;11.40;6.80;;;;;;;25.10;51.25;99762.10;108121;1257;69034;-90
2023/08/02 07:29:56;;;;;;;10.70;6.20;;;;;;;25.14;51.28;99737.74;109182;1260;66547;-93
2023/08/02 07:38:35;;;;;;;11.00;5.90;;;;;;;25.20;51.26;99724.59;109397;1257;74094;-92
2023/08/02 07:47:32;;;;;;;10.40;5.60;;;;;;;25.26;50.88;99728.50;109607;1260;65835;-92
2023/08/02 07:53:03;;;;;;;7.70;5.90;;;;;;;25.29;50.85;99731.82;108119;1256;532725;-92
2023/08/02 07:56:14;;;;;;;11.70;5.30;;;;;;;25.31;50.70;99734.55;107741;1256;555139;-90
2023/08/02 08:02:25;;;;;;;;;;;;;;;25.34;50.52;99737.70;107822;1256;553851;-92
2023/08/02 08:08:47;;;;;;;6.60;5.50;;;;;;;25.37;50.14;99737.80;108788;1257;534216;-92
2023/08/02 08:14:24;;;;;;;7.80;5.70;;;;;;;25.43;49.90;99736.92;108475;1257;554798;-91
2023/08/02 08:20:20;;;;;;;10.80;6.00;;;;;;;25.47;49.50;99738.95;108669;1256;560896;-91
2023/08/02 08:25:55;;;;;;;7.60;6.70;;;;;;;25.53;49.30;99745.13;107859;1257;549082;-91
2023/08/02 08:34:43;;;;;;;12.10;10.80;;;;;;;25.60;48.62;99743.86;107712;1260;535646;-90
2023/08/02 08:43:32;;;;;;;15.40;13.20;;;;;;;25.68;48.56;99738.27;109547;1257;66150;-91
2023/08/02 08:49:40;;;;;;;13.00;11.70;;;;;;;25.73;48.51;99737.05;108879;1260;556038;-89
2023/08/02 09:02:05;;;;;;;11.10;8.70;;;;;;;25.85;48.19;99724.33;108703;1256;547845;-91
2023/08/02 09:08:59;;;;;;;13.50;11.90;;;;;;;25.90;47.88;99729.55;108105;1259;554954;-91
2023/08/02 09:17:23;;;;;;;10.50;9.30;;;;;;;25.99;47.32;99731.96;108700;1257;551822;-91
2023/08/02 09:23:31;;;;;;;10.40;8.30;;;;;;;26.04;47.29;99735.39;108650;1257;556182;-91
2023/08/02 09:26:31;;;;;;;9.10;8.10;;;;;;;26.05;47.16;99737.23;108676;1257;69162;-92
2023/08/02 09:35:08;;;;;;;8.30;6.90;;;;;;;26.12;46.95;99736.05;108279;1257;76532;-91
2023/08/02 09:41:30;;;;;;;9.50;7.60;;;;;;;26.14;46.61;99738.74;108770;1256;559906;-92
2023/08/02 09:47:53;;;;;;;15.80;10.80;;;;;;;26.19;46.37;99733.58;108523;1256;555708;-92
2023/08/02 09:51:33;;;;;;;13.80;12.50;;;;;;;26.21;46.28;99732.07;108554;1257;561251;-91
2023/08/02 09:57:23;;;;;;;11.90;9.40;;;;;;;26.24;46.15;99732.74;108861;1257;555061;-91
2023/08/02 10:02:57;;;;;;;12.90;7.10;;;;;;;26.25;45.98;99726.73;108763;1259;546058;-92
2023/08/02 10:08:31;;;;;;;13.60;8.10;;;;;;;26.29;45.85;99724.53;108435;1256;561096;-92
2023/08/02 10:14:10;;;;;;;9.50;7.10;;;;;;;26.34;45.55;99727.75;108783;1256;552177;-90
2023/08/02 10:17:38;;;;;;;15.20;12.70;;;;;;;26.39;45.47;99722.07;108817;1257;512231;-91
2023/08/02 10:27:10;;;;;;;21.90;16.90;;;;;;;26.62;44.76;99707.58;109033;1257;545826;-92
2023/08/02 10:36:08;;;;;;;19.00;16.90;;;;;;;26.70;44.18;99706.61;108503;1257;536515;-90
2023/08/02 10:50:53;;;;;;;10.50;8.50;;;;;;;26.86;43.78;99701.72;108665;1260;562040;-92
2023/08/02 11:00:04;;;;;;;11.30;8.50;;;;;;;26.90;43.74;99699.66;108862;1256;542194;-91
2023/08/02 11:11:49;;;;;;;10.10;8.40;;;;;;;26.93;43.55;99690.54;108745;1257;561206;-90
2023/08/02 11:17:52;;;;;;;12.90;9.90;;;;;;;26.95;43.41;99689.02;108362;1260;556176;-91
2023/08/02 11:30:00;;;;;;;10.60;8.00;;;;;;;27.05;43.28;99679.70;108875;1257;560620;-91
2023/08/02 11:35:43;;;;;;;8.20;6.80;;;;;;;27.17;42.59;99668.81;108572;1257;556890;-90
2023/08/02 11:44:29;;;;;;;9.80;6.10;;;;;;;27.20;42.27;99663.53;108505;1257;556892;-91
2023/08/02 11:50:06;;;;;;;7.90;6.10;;;;;;;27.25;42.23;99664.27;108364;1258;557667;-92
2023/08/02 11:55:45;;;;;;;6.00;5.30;;;;;;;27.26;42.12;99650.39;109329;1256;67294;-91
2023/08/02 12:04:20;;;;;;;12.10;5.40;;;;;;;27.28;42.05;99650.19;108220;1257;555096;-91
2023/08/02 12:12:58;;;;;;;7.50;5.00;;;;;;;27.40;41.77;99651.90;109315;1261;65893;-91
2023/08/02 12:22:01;;;;;;;10.70;8.30;;;;;;;27.36;41.61;99635.52;109334;1257;72999;-90
2023/08/02 12:27:42;;;;;;;21.30;15.40;;;;;;;27.34;41.59;99637.73;109404;1257;69047;-91
2023/08/02 12:39:56;;;;;;;9.30;6.70;;;;;;;27.34;41.70;99645.41;109690;1256;65600;-91
2023/08/02 12:45:58;;;;;;;7.50;5.50;;;;;;;27.39;41.79;99633.20;108863;1259;554907;-90
2023/08/02 12:52:20;;;;;;;7.60;5.40;;;;;;;27.39;41.65;99645.05;108647;1257;555233;-91
2023/08/02 12:58:21;;;;;;;7.60;4.70;;;;;;;27.42;41.61;99638.60;108117;1256;559311;-93
2023/08/02 13:04:02;;;;;;;7.80;4.60;;;;;;;27.48;41.39;99641.91;108550;1257;67005;-90
2023/08/02 13:13:10;;;;;;;8.10;4.40;;;;;;;27.48;41.31;99655.17;108736;1256;556541;-91
2023/08/02 13:19:26;;;;;;;5.60;4.30;;;;;;;27.46;41.45;99659.15;108862;1257;561487;-93
2023/08/02 13:28:44;;;;;;;6.50;4.70;;;;;;;27.40;41.39;99665.15;108613;1257;555601;-93
2023/08/02 13:34:28;;;;;;;6.10;4.60;;;;;;;27.32;41.63;99655.17;108530;1257;69222;-91
2023/08/02 13:46:35;;;;;;;5.80;5.00;;;;;;;27.16;41.78;99656.23;108542;1256;69181;-89
2023/08/02 13:52:12;;;;;;;7.60;5.20;;;;;;;27.11;41.81;99663.77;108653;1257;74373;-90
2023/08/02 13:58:04;;;;;;;5.70;5.10;;;;;;;27.05;41.96;99667.05;108344;1257;69110;-90
2023/08/02 14:01:08;;;;;;;5.50;4.90;;;;;;;27.02;42.09;99667.66;108516;1257;66743;-91
2023/08/02 14:07:00;;;;;;;8.30;5.10;;;;;;;26.97;42.06;99667.95;108447;1257;74332;-90
2023/08/02 14:12:42;;;;;;;6.80;4.60;;;;;;;26.93;42.12;99676.68;107875;1258;554056;-92
2023/08/02 14:18:42;;;;;;;6.50;4.50;;;;;;;26.90;42.03;99679.94;108423;1257;68979;-90
2023/08/02 14:24:41;;;;;;;5.40;4.80;;;;;;;26.87;42.22;99693.77;108496;1257;73500;-89
2023/08/02 14:30:23;;;;;;;8.50;5.10;;;;;;;26.83;42.21;99699.58;108745;1257;69665;31
2023/08/02 14:36:27;;;;;;;6.20;4.80;;;;;;;26.82;42.29;99707.53;108553;1257;74448;31
2023/08/02 14:42:36;;;;;;;5.30;4.60;;;;;;;26.80;42.32;99712.44;108477;1257;69043;-91
2023/08/02 14:54:46;;;;;;;5.00;4.60;;;;;;;26.77;42.31;99730.40;109030;1253;555903;-90
2023/08/02 14:57:47;;;;;;;6.50;4.80;;;;;;;26.76;42.44;99731.08;108326;1257;69102;-90
2023/08/02 15:03:28;;;;;;;8.50;4.80;;;;;;;26.75;42.23;99732.52;108253;1260;69111;-89
2023/08/02 15:09:30;;;;;;;5.30;4.80;;;;;;;26.72;42.43;99730.19;108236;1257;69972;-90
2023/08/02 15:18:32;;;;;;;6.10;4.60;;;;;;;26.69;42.66;99726.35;108357;1256;69025;-90
2023/08/02 15:24:17;;;;;;;6.20;5.10;;;;;;;26.68;42.59;99722.56;108140;1256;69210;31
2023/08/02 15:30:15;;;;;;;5.50;5.00;;;;;;;26.66;42.71;99723.25;108282;1259;68329;31
2023/08/02 15:39:33;;;;;;;5.90;5.30;;;;;;;26.64;42.97;99726.00;108663;1257;68241;-90
2023/08/02 15:42:36;;;;;;;6.40;5.50;;;;;;;26.63;43.06;99728.35;108201;1257;69034;-89
2023/08/02 15:45:39;;;;;;;7.70;5.20;;;;;;;26.62;43.18;99728.27;108611;1257;561062;-89
2023/08/02 15:48:42;;;;;;;6.30;5.60;;;;;;;26.62;43.40;99732.05;108232;1257;69171;-90
2023/08/02 15:51:49;;;;;;;6.30;5.60;;;;;;;26.61;43.63;99737.40;108490;1257;74403;-91
2023/08/02 15:58:06;;;;;;;7.80;6.00;;;;;;;26.60;43.76;99738.73;107657;1257;559040;-91
2023/08/02 16:06:30;;;;;;;6.50;5.80;;;;;;;26.59;44.10;99742.44;107965;1256;74408;-90
2023/08/02 16:12:09;;;;;;;7.90;5.50;;;;;;;26.58;44.15;99749.70;108191;1256;69197;-90
2023/08/02 16:17:51;;;;;;;8.00;6.00;;;;;;;26.56;44.17;99762.64;108086;1261;68346;-91
2023/08/02 16:24:07;;;;;;;8.10;6.10;;;;;;;26.54;44.26;99760.03;109116;1257;561220;-90
2023/08/02 16:29:55;;;;;;;8.10;6.00;;;;;;;26.54;44.43;99762.13;108033;1260;68254;-90
2023/08/02 16:41:24;;;;;;;5.80;5.30;;;;;;;26.52;44.37;99767.06;109358;1258;66103;-93
2023/08/02 16:47:00;;;;;;;6.90;4.90;;;;;;;26.51;44.04;99771.00;108724;1257;67654;-91
2023/08/02 16:52:44;;;;;;;9.60;5.30;;;;;;;26.51;44.06;99777.50;108564;1257;555900;-93
2023/08/02 16:58:29;;;;;;;5.50;4.40;;;;;;;26.51;44.03;99784.88;108340;1260;561204;-91
2023/08/02 17:07:15;;;;;;;5.90;4.70;;;;;;;26.51;44.15;99788.67;108759;1256;558777;-92
2023/08/02 17:10:20;;;;;;;7.70;4.70;;;;;;;26.51;44.11;99787.39;109222;1258;555082;-93
2023/08/02 17:13:23;;;;;;;6.80;4.80;;;;;;;26.51;44.06;99787.23;109292;1257;68188;-91
2023/08/02 17:22:16;;;;;;;5.60;4.70;;;;;;;26.51;44.01;99794.76;108764;1257;561102;-92
2023/08/02 17:34:10;;;;;;;5.40;4.20;;;;;;;26.50;43.87;99801.61;108696;1256;556087;-92
2023/08/02 17:37:08;;;;;;;5.80;4.40;;;;;;;26.49;43.88;99804.67;100783;1259;69228;-91
2023/08/02 17:52:16;;;;;;;5.40;4.70;;;;;;;26.48;43.82;99819.58;108407;1258;555991;-92
2023/08/02 18:10:13;;;;;;;5.40;4.90;;;;;;;26.46;43.68;99849.85;108520;1258;556145;-93
2023/08/02 18:13:18;;;;;;;6.70;4.80;;;;;;;26.46;43.71;99853.73;108705;1260;554970;-92
2023/08/02 18:22:00;;;;;;;5.00;4.50;;;;;;;26.45;43.66;99853.10;108182;1259;69153;-90
2023/08/02 18:28:04;;;;;;;6.80;4.60;;;;;;;26.44;43.57;99858.13;107961;1260;558500;-93
2023/08/02 18:39:37;;;;;;;5.50;4.80;;;;;;;26.42;43.66;99870.69;108522;1259;560095;-90
2023/08/02 18:57:12;;;;;;;5.40;4.90;;;;;;;26.38;43.62;99872.86;108491;1259;560975;-90
2023/08/02 19:06:08;;;;;;;5.00;4.50;;;;;;;26.37;43.62;99877.59;108077;1261;69161;-90
2023/08/02 19:11:45;;;;;;;5.50;4.80;;;;;;;26.36;43.72;99879.40;108002;1260;82618;-90
2023/08/02 19:17:31;;;;;;;6.00;5.00;;;;;;;26.35;43.83;99882.77;107868;1261;69134;-88
2023/08/02 19:47:20;;;;;;;5.30;4.80;;;;;;;26.29;44.25;99902.34;108982;1260;535690;-89
2023/08/02 19:50:24;;;;;;;5.20;4.70;;;;;;;26.30;44.13;99904.06;108208;1262;69237;-90
2023/08/02 19:56:27;;;;;;;6.70;5.30;;;;;;;26.30;44.10;99910.55;108161;1262;553574;-90
2023/08/02 20:02:30;;;;;;;6.20;4.80;;;;;;;26.29;44.18;99910.17;107582;1257;553737;-93
2023/08/02 20:14:33;;;;;;;7.00;5.20;;;;;;;26.26;44.19;99928.82;107588;1260;69117;31
2023/08/02 20:17:53;;;;;;;5.90;5.00;;;;;;;26.25;44.47;99931.11;107882;1257;509779;-93
2023/08/02 20:24:06;;;;;;;5.50;5.00;;;;;;;26.24;44.28;99939.81;108254;1257;553831;-92
2023/08/02 20:32:31;;;;;;;8.00;5.50;;;;;;;26.23;44.23;99956.79;107882;1257;69106;-90
2023/08/02 20:38:14;;;;;;;7.80;5.10;;;;;;;26.23;44.46;99952.63;108540;1259;555532;-90
2023/08/02 20:50:19;;;;;;;5.80;4.90;;;;;;;26.22;44.51;99955.06;109251;1258;66814;-92
2023/08/02 20:53:23;;;;;;;7.10;5.50;;;;;;;26.22;44.68;99954.79;109223;1261;69092;-92
2023/08/02 21:05:08;;;;;;;5.60;4.90;;;;;;;26.23;44.86;99952.79;107215;1257;560703;-92
2023/08/02 21:10:53;;;;;;;6.50;5.00;;;;;;;26.23;44.72;99951.77;107863;1260;74233;31
2023/08/02 21:20:11;;;;;;;6.40;5.10;;;;;;;26.22;44.97;99952.48;107520;1259;553885;-89
2023/08/02 21:25:36;;;;;;;6.30;5.30;;;;;;;26.21;45.07;99953.11;108793;1256;555716;-89
2023/08/02 21:34:13;;;;;;;6.30;5.70;;;;;;;26.20;45.21;99967.67;109317;1257;68179;-92
2023/08/02 21:39:50;;;;;;;5.80;5.20;;;;;;;26.19;45.14;99963.89;109135;1257;554163;-93
2023/08/02 21:48:33;;;;;;;6.50;5.80;;;;;;;26.19;45.14;99958.75;108933;1258;554504;-93
2023/08/02 21:54:16;;;;;;;6.50;5.40;;;;;;;26.19;45.42;99967.30;108724;1257;560939;-93
2023/08/02 22:00:20;;;;;;;5.90;5.20;;;;;;;26.19;45.47;99966.69;108692;1256;555030;-93
2023/08/02 22:09:40;;;;;;;6.90;4.80;;;;;;;26.18;45.43;99970.84;108598;1257;556357;-92
2023/08/02 22:15:19;;;;;;;6.90;5.20;;;;;;;26.19;45.53;99974.92;108273;1257;555476;-93
2023/08/02 22:21:00;;;;;;;6.20;5.40;;;;;;;26.19;45.68;99971.08;108620;1257;548389;-92
2023/08/02 22:24:07;;;;;;;7.10;5.60;;;;;;;26.18;45.72;99968.35;108167;1257;555910;-92
2023/08/02 22:29:58;;;;;;;5.80;5.30;;;;;;;26.18;45.79;99972.27;107985;1256;555947;-93
2023/08/02 22:36:18;;;;;;;8.00;5.40;;;;;;;26.17;45.91;99975.29;108294;1257;554846;-93
2023/08/02 22:41:55;;;;;;;6.80;5.50;;;;;;;26.18;45.90;99979.20;108180;1260;559931;-93
2023/08/02 22:45:03;;;;;;;6.40;5.80;;;;;;;26.17;45.86;99981.44;108740;1257;554808;-93
2023/08/02 22:50:59;;;;;;;;;;;;;;;26.17;46.05;99981.80;108199;1257;561537;-93
2023/08/02 22:56:43;;;;;;;6.10;5.30;;;;;;;26.14;46.09;99977.52;108452;1257;554089;-92
2023/08/02 22:59:47;;;;;;;6.60;5.50;;;;;;;26.14;46.05;99980.80;108434;1256;554473;-92
2023/08/02 23:02:51;;;;;;;8.80;5.30;;;;;;;26.13;46.04;99979.58;108491;1260;554532;-91
2023/08/02 23:08:44;;;;;;;9.30;5.50;;;;;;;26.13;46.12;99975.73;108083;1260;73748;-90
2023/08/02 23:20:16;;;;;;;6.00;5.40;;;;;;;26.12;46.18;99975.65;108546;1257;558540;-93
2023/08/02 23:25:56;;;;;;;6.60;5.50;;;;;;;26.12;46.34;99979.77;108259;1256;555948;-92
2023/08/02 23:31:56;;;;;;;5.50;5.00;;;;;;;26.11;46.42;99974.94;108706;1257;560849;-90
2023/08/02 23:37:32;;;;;;;6.90;5.70;;;;;;;26.10;46.45;99976.05;108523;1257;556637;-91
2023/08/02 23:40:30;;;;;;;6.40;5.30;;;;;;;26.09;46.46;99973.42;107550;1257;554076;-92
2023/08/02 23:43:37;;;;;;;7.20;5.30;;;;;;;26.09;46.52;99976.52;107840;1257;553869;-93
2023/08/02 23:46:44;;;;;;;8.20;5.20;;;;;;;26.09;46.48;99978.15;107895;1257;554530;-92
2023/08/02 23:52:43;;;;;;;7.30;5.80;;;;;;;26.07;46.63;99976.44;108562;1256;555760;-91
2023/08/02 23:58:39;;;;;;;6.20;5.20;;;;;;;26.07;46.61;99970.88;107938;1257;69024;-90
